createdAt,value
2019-01-16T00:00:39.902Z,50.00
2019-01-16T00:03:43.810Z,50.80
2019-01-16T00:06:53.682Z,50.20
2019-01-16T00:09:55.797Z,49.90
2019-01-16T00:13:05.687Z,49.70
2019-01-16T00:16:08.059Z,49.80
2019-01-16T00:19:09.159Z,50.30
2019-01-16T00:22:19.008Z,50.20
2019-01-16T00:25:14.606Z,49.40
2019-01-16T00:28:21.114Z,49.70
2019-01-16T00:31:29.514Z,50.80
2019-01-16T00:34:30.503Z,50.60
2019-01-16T00:37:33.636Z,50.20
2019-01-16T00:40:43.536Z,50.30
2019-01-16T00:43:37.204Z,50.00
2019-01-16T00:46:37.976Z,50.50
2019-01-16T00:49:31.184Z,49.90
2019-01-16T00:52:31.780Z,50.60
2019-01-16T00:55:41.699Z,51.00
2019-01-16T00:58:42.380Z,51.00
2019-01-16T01:01:52.314Z,51.00
2019-01-16T01:04:54.711Z,51.10
2019-01-16T01:08:04.560Z,51.10
2019-01-16T01:11:00.679Z,50.90
2019-01-16T01:14:29.525Z,50.90
2019-01-16T01:17:21.735Z,51.40
2019-01-16T01:20:22.460Z,51.10
2019-01-16T01:23:32.310Z,50.90
2019-01-16T01:26:38.938Z,50.10
2019-01-16T01:29:37.117Z,50.20
2019-01-16T01:32:43.779Z,50.80
2019-01-16T01:35:46.389Z,51.00
2019-01-16T01:38:38.746Z,50.10
2019-01-16T01:41:48.611Z,50.20
2019-01-16T01:44:41.352Z,50.90
2019-01-16T01:47:51.218Z,50.40
2019-01-16T01:50:51.984Z,50.80
2019-01-16T01:53:52.825Z,51.50
2019-01-16T01:57:02.667Z,51.70
2019-01-16T01:59:57.320Z,51.50
2019-01-16T02:03:07.187Z,51.50
2019-01-16T02:06:07.898Z,50.50
2019-01-16T02:12:20.827Z,51.00
2019-01-16T02:15:05.110Z,50.50
2019-01-16T02:18:14.978Z,51.00
2019-01-16T02:21:17.390Z,50.60
2019-01-16T02:24:18.276Z,50.40
2019-01-16T02:27:18.997Z,51.50
2019-01-16T02:30:30.715Z,51.50
2019-01-16T02:33:37.458Z,51.50
2019-01-16T02:36:33.766Z,51.80
2019-01-16T02:39:40.462Z,52.40
2019-01-16T02:42:50.272Z,51.80
2019-01-16T02:45:56.808Z,51.60
2019-01-16T02:49:06.665Z,51.80
2019-01-16T02:52:06.868Z,51.90
2019-01-16T02:55:16.767Z,52.20
2019-01-16T02:58:17.450Z,51.50
2019-01-16T03:01:27.280Z,51.40
2019-01-16T03:04:32.216Z,51.10
2019-01-16T03:07:42.084Z,51.00
2019-01-16T03:10:42.640Z,51.20
2019-01-16T03:13:52.461Z,51.40
2019-01-16T03:16:52.853Z,51.50
2019-01-16T03:19:59.700Z,51.30
2019-01-16T03:23:25.572Z,51.40
2019-01-16T03:26:35.421Z,51.10
2019-01-16T03:29:37.525Z,51.90
2019-01-16T03:32:47.378Z,52.40
2019-01-16T03:35:44.299Z,52.60
2019-01-16T03:38:54.145Z,52.90
2019-01-16T03:42:14.046Z,52.90
2019-01-16T03:48:55.078Z,52.20
2019-01-16T03:51:55.815Z,52.50
2019-01-16T03:54:59.725Z,52.20
2019-01-16T03:58:09.586Z,52.90
2019-01-16T04:01:10.529Z,53.10
2019-01-16T04:04:13.938Z,53.00
2019-01-16T04:07:23.882Z,52.70
2019-01-16T04:10:27.152Z,52.40
2019-01-16T04:13:37.094Z,52.00
2019-01-16T04:16:30.247Z,52.30
2019-01-16T04:19:31.059Z,52.00
2019-01-16T04:22:40.885Z,52.20
2019-01-16T04:25:39.557Z,52.00
2019-01-16T04:28:27.227Z,52.10
2019-01-16T04:31:27.970Z,52.30
2019-01-16T04:34:28.401Z,51.80
2019-01-16T04:37:38.232Z,51.90
2019-01-16T04:40:29.133Z,52.10
2019-01-16T04:43:29.703Z,52.40
2019-01-16T04:46:58.485Z,52.80
2019-01-16T04:49:54.156Z,52.90
2019-01-16T04:53:04.003Z,53.00
2019-01-16T04:56:03.178Z,53.00
2019-01-16T04:59:03.499Z,53.60
2019-01-16T05:02:06.283Z,54.20
2019-01-16T05:05:06.599Z,54.30
2019-01-16T05:08:16.415Z,54.30
2019-01-16T05:11:16.455Z,54.70
2019-01-16T05:14:26.312Z,54.70
2019-01-16T05:17:26.547Z,54.70
2019-01-16T05:20:27.773Z,54.90
2019-01-16T05:23:37.570Z,55.00
2019-01-16T05:26:32.895Z,54.90
2019-01-16T05:29:34.561Z,54.80
2019-01-16T05:32:40.373Z,54.70
2019-01-16T05:35:50.236Z,54.90
2019-01-16T05:38:59.949Z,55.00
2019-01-16T05:42:09.805Z,54.60
2019-01-16T05:45:29.392Z,54.70
2019-01-16T05:48:39.227Z,55.10
2019-01-16T05:51:40.074Z,55.00
2019-01-16T05:54:42.184Z,55.30
2019-01-16T05:57:42.979Z,54.70
2019-01-16T06:00:47.756Z,55.20
2019-01-16T06:03:48.319Z,54.90
2019-01-16T06:06:58.172Z,54.90
2019-01-16T06:09:49.644Z,54.80
2019-01-16T06:12:59.503Z,54.90
2019-01-16T06:15:50.295Z,55.10
2019-01-16T06:19:00.143Z,55.00
2019-01-16T06:22:19.808Z,55.10
2019-01-16T06:25:29.689Z,54.60
2019-01-16T06:28:32.101Z,54.40
2019-01-16T06:31:41.926Z,54.90
2019-01-16T06:34:43.093Z,55.20
2019-01-16T06:37:52.958Z,55.20
2019-01-16T06:40:50.357Z,55.60
2019-01-16T06:44:00.232Z,55.00
2019-01-16T06:46:58.702Z,54.70
2019-01-16T06:50:07.076Z,54.70
2019-01-16T06:52:54.872Z,54.40
2019-01-16T06:56:04.685Z,54.80
2019-01-16T06:58:57.370Z,55.90
2019-01-16T07:01:38.311Z,56.50
2019-01-16T07:04:39.178Z,57.10
2019-01-16T07:07:49.016Z,57.10
2019-01-16T07:10:47.459Z,57.30
2019-01-16T07:13:57.476Z,56.90
2019-01-16T07:16:57.877Z,56.50
2019-01-16T07:20:09.755Z,56.30
2019-01-16T07:23:32.061Z,56.60
2019-01-16T07:26:34.311Z,56.60
2019-01-16T07:29:36.737Z,56.30
2019-01-16T07:32:46.809Z,56.10
2019-01-16T07:35:47.613Z,56.20
2019-01-16T07:38:57.470Z,56.00
2019-01-16T07:41:59.747Z,55.90
2019-01-16T07:45:09.595Z,55.70
2019-01-16T07:48:07.187Z,55.80
2019-01-16T07:51:17.029Z,55.90
2019-01-16T07:54:19.173Z,56.00
2019-01-16T07:57:23.051Z,56.20
2019-01-16T08:00:42.570Z,56.40
2019-01-16T08:03:52.383Z,56.40
2019-01-16T08:06:55.957Z,55.80
2019-01-16T08:10:11.502Z,55.50
2019-01-16T08:13:12.105Z,55.60
2019-01-16T08:16:21.987Z,55.10
2019-01-16T08:19:22.355Z,54.80
2019-01-16T08:22:23.189Z,54.50
2019-01-16T08:25:33.005Z,53.40
2019-01-16T08:28:33.457Z,51.80
2019-01-16T08:31:33.968Z,50.80
2019-01-16T08:34:43.800Z,49.70
2019-01-16T08:37:46.150Z,50.40
2019-01-16T08:40:55.988Z,50.50
2019-01-16T08:43:56.609Z,50.40
2019-01-16T08:47:06.411Z,50.20
2019-01-16T08:50:07.319Z,50.50
2019-01-16T08:53:17.136Z,50.30
2019-01-16T08:56:17.826Z,51.30
2019-01-16T08:59:27.678Z,51.40
2019-01-16T09:02:28.025Z,51.30
2019-01-16T09:05:29.193Z,51.30
2019-01-16T09:08:39.008Z,51.10
2019-01-16T09:11:35.998Z,50.00
2019-01-16T09:14:38.104Z,47.80
2019-01-16T09:17:44.336Z,46.40
2019-01-16T09:20:48.401Z,43.60
2019-01-16T09:24:17.192Z,41.90
2019-01-16T09:27:18.148Z,40.70
2019-01-16T09:30:20.492Z,37.60
2019-01-16T09:33:20.930Z,37.30
2019-01-16T09:36:23.219Z,37.20
2019-01-16T09:39:33.035Z,34.80
2019-01-16T09:42:40.120Z,34.80
2019-01-16T09:45:50.012Z,33.20
2019-01-16T09:48:47.835Z,35.30
2019-01-16T09:51:48.643Z,35.30
2019-01-16T09:54:48.492Z,35.40
2019-01-16T09:57:48.964Z,36.10
2019-01-16T10:00:58.823Z,34.00
2019-01-16T10:03:59.343Z,34.80
2019-01-16T10:07:00.102Z,32.10
2019-01-16T10:10:09.922Z,31.50
2019-01-16T10:13:16.833Z,30.40
2019-01-16T10:16:26.680Z,28.40
2019-01-16T10:19:18.150Z,26.10
2019-01-16T10:22:18.627Z,24.40
2019-01-16T10:25:16.231Z,25.80
2019-01-16T10:28:24.283Z,24.70
2019-01-16T10:31:22.186Z,21.30
2019-01-16T10:34:22.649Z,21.10
2019-01-16T10:37:27.660Z,20.00
2019-01-16T10:40:37.482Z,21.50
2019-01-16T10:43:38.430Z,20.00
2019-01-16T10:46:48.292Z,20.80
2019-01-16T10:49:48.944Z,19.20
2019-01-16T10:52:58.055Z,20.10
2019-01-16T10:56:07.875Z,17.60
2019-01-16T10:59:13.060Z,18.00
2019-01-16T11:02:23.529Z,17.80
2019-01-16T11:05:25.097Z,17.40
2019-01-16T11:08:34.942Z,17.00
2019-01-16T11:15:00.019Z,18.30
2019-01-16T11:18:09.956Z,18.60
2019-01-16T11:21:11.149Z,18.10
2019-01-16T11:24:29.814Z,17.70
2019-01-16T11:27:30.212Z,16.30
2019-01-16T11:30:26.089Z,15.90
2019-01-16T11:33:35.947Z,15.30
2019-01-16T11:36:36.601Z,15.60
2019-01-16T11:39:46.433Z,14.00
2019-01-16T11:42:47.081Z,14.30
2019-01-16T11:45:56.911Z,17.00
2019-01-16T11:48:59.350Z,15.60
2019-01-16T11:52:09.162Z,14.60
2019-01-16T11:55:11.545Z,16.70
2019-01-16T11:58:21.404Z,14.90
2019-01-16T12:01:22.122Z,15.10
2019-01-16T12:04:23.006Z,17.20
2019-01-16T12:07:32.854Z,15.90
2019-01-16T12:10:38.969Z,15.90
2019-01-16T12:13:48.890Z,16.60
2019-01-16T12:16:51.685Z,16.90
2019-01-16T12:20:01.559Z,15.70
2019-01-16T12:23:02.194Z,15.40
2019-01-16T12:26:12.046Z,16.80
2019-01-16T12:29:12.393Z,17.00
2019-01-16T12:32:13.098Z,17.00
2019-01-16T12:35:14.003Z,17.40
2019-01-16T12:38:23.859Z,18.00
2019-01-16T12:41:26.219Z,18.60
2019-01-16T12:44:36.073Z,22.10
2019-01-16T12:47:38.162Z,23.70
2019-01-16T12:50:36.379Z,25.70
2019-01-16T12:54:05.165Z,23.90
2019-01-16T12:56:55.574Z,23.30
2019-01-16T13:00:05.516Z,21.20
2019-01-16T13:03:06.318Z,20.60
2019-01-16T13:06:13.280Z,20.60
2019-01-16T13:09:16.342Z,20.00
2019-01-16T13:12:26.203Z,20.10
2019-01-16T13:15:23.032Z,19.60
2019-01-16T13:18:23.227Z,20.60
2019-01-16T13:21:24.146Z,20.20
2019-01-16T13:24:33.976Z,18.60
2019-01-16T13:27:34.325Z,18.50
2019-01-16T13:30:35.026Z,20.60
2019-01-16T13:33:32.134Z,25.90
2019-01-16T13:36:32.898Z,26.90
2019-01-16T13:39:42.726Z,26.20
2019-01-16T13:42:43.581Z,29.70
2019-01-16T13:45:53.431Z,31.90
2019-01-16T13:48:56.734Z,33.30
2019-01-16T13:52:00.453Z,34.00
2019-01-16T13:55:29.396Z,33.90
2019-01-16T13:58:29.777Z,35.80
2019-01-16T14:01:39.607Z,34.50
2019-01-16T14:04:43.411Z,34.60
2019-01-16T14:07:53.236Z,36.90
2019-01-16T14:10:44.921Z,36.50
2019-01-16T14:14:00.503Z,37.80
2019-01-16T14:17:04.689Z,37.80
2019-01-16T14:20:14.542Z,39.20
2019-01-16T14:23:06.795Z,38.40
2019-01-16T14:26:16.615Z,41.30
2019-01-16T14:29:17.379Z,40.50
2019-01-16T14:32:18.086Z,41.70
2019-01-16T14:35:18.362Z,41.80
2019-01-16T14:38:28.207Z,43.20
2019-01-16T14:41:19.268Z,41.80
2019-01-16T14:44:28.964Z,43.10
2019-01-16T14:47:29.716Z,43.00
2019-01-16T14:50:32.139Z,42.60
2019-01-16T14:53:41.989Z,43.50
2019-01-16T14:56:42.716Z,43.50
2019-01-16T14:59:43.065Z,43.00
2019-01-16T15:02:52.877Z,42.10
2019-01-16T15:05:58.709Z,44.10
2019-01-16T15:09:08.588Z,42.60
2019-01-16T15:12:09.051Z,44.00
2019-01-16T15:15:18.905Z,43.60
2019-01-16T15:18:19.474Z,44.00
2019-01-16T15:21:35.035Z,44.40
2019-01-16T15:24:38.901Z,44.50
2019-01-16T15:27:48.744Z,45.30
2019-01-16T15:30:49.413Z,44.00
2019-01-16T15:33:59.291Z,45.50
2019-01-16T15:37:01.483Z,45.40
2019-01-16T15:40:01.830Z,45.40
2019-01-16T15:43:11.653Z,46.10
2019-01-16T15:46:12.447Z,46.40
2019-01-16T15:49:22.314Z,46.70
2019-01-16T15:55:19.505Z,47.10
2019-01-16T15:58:29.316Z,48.20
2019-01-16T16:01:30.285Z,48.40
2019-01-16T16:04:40.126Z,48.10
2019-01-16T16:07:36.963Z,48.10
2019-01-16T16:10:42.472Z,48.50
2019-01-16T16:13:52.306Z,48.80
2019-01-16T16:16:52.992Z,49.10
2019-01-16T16:19:56.918Z,49.30
2019-01-16T16:23:06.733Z,49.50
2019-01-16T16:26:08.912Z,49.80
2019-01-16T16:29:18.758Z,50.30
2019-01-16T16:32:12.785Z,50.50
2019-01-16T16:35:22.650Z,50.80
2019-01-16T16:38:23.694Z,51.00
2019-01-16T16:41:29.980Z,51.20
2019-01-16T16:44:39.901Z,51.60
2019-01-16T16:47:36.292Z,51.50
2019-01-16T16:50:42.055Z,51.70
2019-01-16T16:53:51.874Z,52.10
2019-01-16T16:56:53.684Z,52.90
2019-01-16T17:00:23.703Z,52.70
2019-01-16T17:03:26.417Z,53.10
2019-01-16T17:06:36.388Z,53.50
2019-01-16T17:09:37.866Z,53.50
2019-01-16T17:12:48.351Z,53.60
2019-01-16T17:15:49.684Z,53.60
2019-01-16T17:19:00.159Z,53.70
2019-01-16T17:22:09.209Z,53.70
2019-01-16T17:25:09.205Z,53.90
2019-01-16T17:28:11.457Z,54.30
2019-01-16T17:31:21.794Z,54.40
2019-01-16T17:34:24.618Z,54.40
2019-01-16T17:37:35.132Z,54.40
2019-01-16T17:40:42.094Z,54.20
2019-01-16T17:43:52.950Z,54.60
2019-01-16T17:46:54.604Z,55.20
2019-01-16T17:50:06.274Z,55.10
2019-01-16T17:53:09.904Z,55.10
2019-01-16T17:56:21.978Z,54.70
2019-01-16T17:59:27.145Z,54.80
2019-01-16T18:02:37.653Z,54.90
2019-01-16T18:05:42.274Z,54.90
2019-01-16T18:08:52.345Z,54.80
2019-01-16T18:11:54.767Z,54.80
2019-01-16T18:15:04.843Z,54.60
2019-01-16T18:18:30.124Z,54.60
2019-01-16T18:21:39.994Z,54.60
2019-01-16T18:24:59.628Z,54.70
2019-01-16T18:28:09.478Z,54.70
2019-01-16T18:31:11.639Z,54.80
2019-01-16T18:34:12.007Z,54.90
2019-01-16T18:37:21.864Z,54.80
2019-01-16T18:40:15.041Z,54.90
2019-01-16T18:43:17.821Z,55.40
2019-01-16T18:46:27.755Z,54.70
2019-01-16T18:49:28.255Z,54.70
2019-01-16T18:52:38.215Z,54.80
2019-01-16T18:55:39.531Z,54.70
2019-01-16T18:58:40.109Z,54.70
2019-01-16T19:01:50.394Z,54.70
2019-01-16T19:04:50.941Z,54.70
2019-01-16T19:08:00.923Z,54.80
2019-01-16T19:10:54.273Z,54.90
2019-01-16T19:13:55.317Z,54.80
2019-01-16T19:17:05.534Z,55.10
2019-01-16T19:20:10.553Z,55.30
2019-01-16T19:23:20.412Z,55.30
2019-01-16T19:26:25.493Z,55.30
2019-01-16T19:29:28.804Z,55.10
2019-01-16T19:32:29.544Z,55.20
2019-01-16T19:35:39.413Z,55.40
2019-01-16T19:38:40.216Z,55.40
2019-01-16T19:41:42.690Z,55.30
2019-01-16T19:44:38.147Z,55.50
2019-01-16T19:47:48.019Z,55.20
2019-01-16T19:50:48.740Z,55.10
2019-01-16T19:53:49.557Z,55.30
2019-01-16T19:56:50.233Z,55.30
2019-01-16T19:59:51.585Z,55.60
2019-01-16T20:03:01.454Z,55.50
2019-01-16T20:06:07.873Z,55.40
2019-01-16T20:09:17.958Z,55.60
2019-01-16T20:12:14.127Z,55.60
2019-01-16T20:15:24.540Z,55.90
2019-01-16T20:18:18.436Z,55.80
2019-01-16T20:21:28.491Z,55.80
2019-01-16T20:24:30.828Z,55.60
2019-01-16T20:27:40.805Z,55.50
2019-01-16T20:30:41.570Z,55.60
2019-01-16T20:33:42.339Z,55.60
2019-01-16T20:36:39.928Z,55.50
2019-01-16T20:39:43.432Z,55.80
2019-01-16T20:42:34.435Z,56.00
2019-01-16T20:46:03.297Z,56.10
2019-01-16T20:49:07.208Z,56.10
2019-01-16T20:52:17.069Z,56.20
2019-01-16T20:55:20.178Z,56.30
2019-01-16T20:58:30.056Z,56.40
2019-01-16T21:01:30.922Z,56.40
2019-01-16T21:04:40.793Z,56.30
2019-01-16T21:07:35.079Z,56.10
2019-01-16T21:10:37.598Z,56.20
2019-01-16T21:13:39.678Z,55.90
2019-01-16T21:16:49.527Z,55.70
2019-01-16T21:19:50.401Z,55.80
2019-01-16T21:23:00.986Z,55.80
2019-01-16T21:26:23.510Z,55.80
2019-01-16T21:29:23.851Z,55.40
2019-01-16T21:32:18.377Z,55.50
2019-01-16T21:35:39.477Z,55.60
2019-01-16T21:38:40.226Z,55.60
2019-01-16T21:41:50.126Z,55.50
2019-01-16T21:44:54.093Z,55.60
2019-01-16T21:48:03.952Z,55.70
2019-01-16T21:51:04.798Z,55.70
2019-01-16T21:54:14.645Z,55.50
2019-01-16T21:57:17.043Z,56.00
2019-01-16T22:00:39.437Z,55.90
2019-01-16T22:03:49.266Z,56.50
2019-01-16T22:07:08.591Z,55.90
2019-01-16T22:10:18.529Z,56.30
2019-01-16T22:13:19.376Z,56.30
2019-01-16T22:16:29.229Z,56.30
2019-01-16T22:19:32.297Z,56.30
2019-01-16T22:22:42.154Z,56.30
2019-01-16T22:25:44.938Z,56.10
2019-01-16T22:29:25.565Z,56.20
2019-01-16T22:32:35.088Z,56.10
2019-01-16T22:35:45.356Z,55.70
2019-01-16T22:38:46.090Z,55.60
2019-01-16T22:41:56.139Z,55.60
2019-01-16T22:45:18.755Z,55.50
2019-01-16T22:48:29.169Z,55.50
2019-01-16T22:51:33.127Z,55.30
2019-01-16T22:54:43.442Z,55.50
2019-01-16T22:57:44.768Z,55.70
2019-01-16T23:00:57.353Z,55.80
2019-01-16T23:04:02.697Z,56.00
2019-01-16T23:07:12.554Z,56.10
2019-01-16T23:10:12.963Z,56.40
2019-01-16T23:13:23.894Z,56.50
2019-01-16T23:16:29.130Z,56.70
2019-01-16T23:19:39.122Z,56.80
2019-01-16T23:22:39.832Z,56.90
2019-01-16T23:25:49.736Z,56.80
2019-01-16T23:28:50.510Z,56.60
2019-01-16T23:31:49.597Z,56.30
2019-01-16T23:34:59.414Z,56.10
2019-01-16T23:38:00.346Z,56.00
2019-01-16T23:41:29.072Z,55.90
2019-01-16T23:44:30.066Z,55.90
2019-01-16T23:47:30.600Z,55.70
2019-01-16T23:50:40.453Z,55.80
2019-01-16T23:53:31.232Z,55.80
2019-01-16T23:56:41.075Z,55.80
2019-01-16T23:59:36.742Z,55.80
